sensor_id;sensor_type;location;lat;lon;timestamp;P1;durP1;ratioP1;P2;durP2;ratioP2
20709;SDS011;10516;51.518;9.864;2023-07-02T00:00:19;6.68;;;4.22;;
20709;SDS011;10516;51.518;9.864;2023-07-02T00:02:45;7.75;;;4.72;;
20709;SDS011;10516;51.518;9.864;2023-07-02T00:05:10;7.25;;;5.10;;
20709;SDS011;10516;51.518;9.864;2023-07-02T00:07:36;6.80;;;5.20;;
20709;SDS011;10516;51.518;9.864;2023-07-02T00:10:02;5.45;;;4.70;;
20709;SDS011;10516;51.518;9.864;2023-07-02T00:12:28;10.85;;;5.38;;
20709;SDS011;10516;51.518;9.864;2023-07-02T00:14:54;6.45;;;5.25;;
20709;SDS011;10516;51.518;9.864;2023-07-02T00:17:20;6.82;;;5.32;;
20709;SDS011;10516;51.518;9.864;2023-07-02T00:19:45;10.75;;;4.80;;
20709;SDS011;10516;51.518;9.864;2023-07-02T00:22:11;9.60;;;5.25;;
20709;SDS011;10516;51.518;9.864;2023-07-02T00:24:37;10.32;;;6.28;;
20709;SDS011;10516;51.518;9.864;2023-07-02T00:27:02;11.00;;;5.60;;
20709;SDS011;10516;51.518;9.864;2023-07-02T00:29:31;6.18;;;5.60;;
20709;SDS011;10516;51.518;9.864;2023-07-02T00:31:56;7.75;;;5.50;;
20709;SDS011;10516;51.518;9.864;2023-07-02T00:34:22;8.32;;;6.05;;
20709;SDS011;10516;51.518;9.864;2023-07-02T00:36:47;13.68;;;6.93;;
20709;SDS011;10516;51.518;9.864;2023-07-02T00:39:12;10.95;;;5.95;;
20709;SDS011;10516;51.518;9.864;2023-07-02T00:41:38;9.45;;;7.03;;
20709;SDS011;10516;51.518;9.864;2023-07-02T00:44:04;7.78;;;6.93;;
20709;SDS011;10516;51.518;9.864;2023-07-02T00:46:29;8.13;;;6.45;;
20709;SDS011;10516;51.518;9.864;2023-07-02T00:48:56;8.05;;;7.25;;
20709;SDS011;10516;51.518;9.864;2023-07-02T00:51:25;7.65;;;6.85;;
20709;SDS011;10516;51.518;9.864;2023-07-02T00:53:53;13.05;;;7.82;;
20709;SDS011;10516;51.518;9.864;2023-07-02T00:56:20;8.55;;;7.15;;
20709;SDS011;10516;51.518;9.864;2023-07-02T00:58:47;9.23;;;6.82;;
20709;SDS011;10516;51.518;9.864;2023-07-02T01:01:19;9.35;;;7.60;;
20709;SDS011;10516;51.518;9.864;2023-07-02T01:06:19;10.82;;;8.38;;
20709;SDS011;10516;51.518;9.864;2023-07-02T01:08:50;9.82;;;7.57;;
20709;SDS011;10516;51.518;9.864;2023-07-02T01:11:17;11.10;;;8.27;;
20709;SDS011;10516;51.518;9.864;2023-07-02T01:13:43;8.88;;;8.07;;
20709;SDS011;10516;51.518;9.864;2023-07-02T01:16:09;10.98;;;8.80;;
20709;SDS011;10516;51.518;9.864;2023-07-02T01:18:35;10.20;;;9.15;;
20709;SDS011;10516;51.518;9.864;2023-07-02T01:21:03;14.18;;;10.10;;
20709;SDS011;10516;51.518;9.864;2023-07-02T01:23:32;12.40;;;10.65;;
20709;SDS011;10516;51.518;9.864;2023-07-02T01:25:59;11.82;;;10.48;;
20709;SDS011;10516;51.518;9.864;2023-07-02T01:28:25;13.27;;;10.70;;
20709;SDS011;10516;51.518;9.864;2023-07-02T01:30:53;12.15;;;10.75;;
20709;SDS011;10516;51.518;9.864;2023-07-02T01:33:18;15.10;;;12.20;;
20709;SDS011;10516;51.518;9.864;2023-07-02T01:35:43;12.27;;;10.45;;
20709;SDS011;10516;51.518;9.864;2023-07-02T01:38:09;13.43;;;11.52;;
20709;SDS011;10516;51.518;9.864;2023-07-02T01:40:38;13.10;;;10.88;;
20709;SDS011;10516;51.518;9.864;2023-07-02T01:43:03;16.77;;;10.95;;
20709;SDS011;10516;51.518;9.864;2023-07-02T01:45:29;16.52;;;13.02;;
20709;SDS011;10516;51.518;9.864;2023-07-02T01:47:54;14.95;;;11.07;;
20709;SDS011;10516;51.518;9.864;2023-07-02T01:50:19;11.50;;;10.27;;
20709;SDS011;10516;51.518;9.864;2023-07-02T01:52:45;15.15;;;13.60;;
20709;SDS011;10516;51.518;9.864;2023-07-02T01:55:11;15.35;;;11.32;;
20709;SDS011;10516;51.518;9.864;2023-07-02T01:57:36;15.77;;;11.35;;
20709;SDS011;10516;51.518;9.864;2023-07-02T02:00:01;13.43;;;12.07;;
20709;SDS011;10516;51.518;9.864;2023-07-02T02:02:28;16.98;;;11.50;;
20709;SDS011;10516;51.518;9.864;2023-07-02T02:04:53;13.73;;;12.25;;
20709;SDS011;10516;51.518;9.864;2023-07-02T02:07:18;16.13;;;12.10;;
20709;SDS011;10516;51.518;9.864;2023-07-02T02:09:44;16.27;;;12.38;;
20709;SDS011;10516;51.518;9.864;2023-07-02T02:12:09;16.58;;;13.02;;
20709;SDS011;10516;51.518;9.864;2023-07-02T02:14:35;15.10;;;11.52;;
20709;SDS011;10516;51.518;9.864;2023-07-02T02:17:00;18.52;;;13.30;;
20709;SDS011;10516;51.518;9.864;2023-07-02T02:19:28;16.50;;;12.07;;
20709;SDS011;10516;51.518;9.864;2023-07-02T02:21:53;14.00;;;12.50;;
20709;SDS011;10516;51.518;9.864;2023-07-02T02:24:19;15.88;;;11.82;;
20709;SDS011;10516;51.518;9.864;2023-07-02T02:26:44;15.68;;;12.85;;
20709;SDS011;10516;51.518;9.864;2023-07-02T02:29:10;14.25;;;11.88;;
20709;SDS011;10516;51.518;9.864;2023-07-02T02:31:35;12.93;;;10.95;;
20709;SDS011;10516;51.518;9.864;2023-07-02T02:34:00;12.73;;;10.95;;
20709;SDS011;10516;51.518;9.864;2023-07-02T02:36:26;13.00;;;11.45;;
20709;SDS011;10516;51.518;9.864;2023-07-02T02:38:51;13.13;;;11.80;;
20709;SDS011;10516;51.518;9.864;2023-07-02T02:41:17;12.35;;;11.10;;
20709;SDS011;10516;51.518;9.864;2023-07-02T02:43:42;13.25;;;11.85;;
20709;SDS011;10516;51.518;9.864;2023-07-02T02:46:09;13.20;;;11.85;;
20709;SDS011;10516;51.518;9.864;2023-07-02T02:48:37;17.38;;;12.10;;
20709;SDS011;10516;51.518;9.864;2023-07-02T02:51:03;18.33;;;13.50;;
20709;SDS011;10516;51.518;9.864;2023-07-02T02:53:28;15.60;;;12.43;;
20709;SDS011;10516;51.518;9.864;2023-07-02T02:55:54;13.13;;;11.90;;
20709;SDS011;10516;51.518;9.864;2023-07-02T02:58:19;14.13;;;12.23;;
20709;SDS011;10516;51.518;9.864;2023-07-02T03:00:45;12.25;;;11.05;;
20709;SDS011;10516;51.518;9.864;2023-07-02T03:03:13;12.32;;;11.05;;
20709;SDS011;10516;51.518;9.864;2023-07-02T03:05:39;12.90;;;11.60;;
20709;SDS011;10516;51.518;9.864;2023-07-02T03:08:05;16.80;;;12.15;;
20709;SDS011;10516;51.518;9.864;2023-07-02T03:10:30;13.48;;;11.55;;
20709;SDS011;10516;51.518;9.864;2023-07-02T03:12:56;12.32;;;11.13;;
20709;SDS011;10516;51.518;9.864;2023-07-02T03:15:23;15.90;;;11.52;;
20709;SDS011;10516;51.518;9.864;2023-07-02T03:17:49;12.70;;;11.40;;
20709;SDS011;10516;51.518;9.864;2023-07-02T03:20:14;11.93;;;10.60;;
20709;SDS011;10516;51.518;9.864;2023-07-02T03:22:40;12.80;;;11.43;;
20709;SDS011;10516;51.518;9.864;2023-07-02T03:25:05;14.82;;;10.98;;
20709;SDS011;10516;51.518;9.864;2023-07-02T03:27:31;11.35;;;10.25;;
20709;SDS011;10516;51.518;9.864;2023-07-02T03:29:56;17.52;;;10.85;;
20709;SDS011;10516;51.518;9.864;2023-07-02T03:32:22;15.15;;;11.40;;
20709;SDS011;10516;51.518;9.864;2023-07-02T03:34:47;13.02;;;9.65;;
20709;SDS011;10516;51.518;9.864;2023-07-02T03:37:12;12.82;;;11.13;;
20709;SDS011;10516;51.518;9.864;2023-07-02T03:39:38;15.82;;;9.35;;
20709;SDS011;10516;51.518;9.864;2023-07-02T03:42:04;15.10;;;10.55;;
20709;SDS011;10516;51.518;9.864;2023-07-02T03:44:30;11.40;;;9.00;;
20709;SDS011;10516;51.518;9.864;2023-07-02T03:46:56;14.65;;;9.73;;
20709;SDS011;10516;51.518;9.864;2023-07-02T03:49:21;9.07;;;8.27;;
20709;SDS011;10516;51.518;9.864;2023-07-02T03:51:46;12.18;;;9.35;;
20709;SDS011;10516;51.518;9.864;2023-07-02T03:54:12;10.45;;;8.27;;
20709;SDS011;10516;51.518;9.864;2023-07-02T03:56:37;10.35;;;8.60;;
20709;SDS011;10516;51.518;9.864;2023-07-02T03:59:03;9.35;;;8.32;;
20709;SDS011;10516;51.518;9.864;2023-07-02T04:01:28;9.70;;;8.80;;
20709;SDS011;10516;51.518;9.864;2023-07-02T04:03:55;10.95;;;8.20;;
20709;SDS011;10516;51.518;9.864;2023-07-02T04:06:21;9.60;;;7.90;;
20709;SDS011;10516;51.518;9.864;2023-07-02T04:08:46;8.65;;;7.70;;
20709;SDS011;10516;51.518;9.864;2023-07-02T04:11:12;10.57;;;8.23;;
20709;SDS011;10516;51.518;9.864;2023-07-02T04:13:37;12.35;;;7.63;;
20709;SDS011;10516;51.518;9.864;2023-07-02T04:16:03;8.55;;;6.72;;
20709;SDS011;10516;51.518;9.864;2023-07-02T04:18:29;8.63;;;7.13;;
20709;SDS011;10516;51.518;9.864;2023-07-02T04:20:55;7.38;;;6.68;;
20709;SDS011;10516;51.518;9.864;2023-07-02T04:23:21;8.43;;;7.47;;
20709;SDS011;10516;51.518;9.864;2023-07-02T04:25:47;10.38;;;6.63;;
20709;SDS011;10516;51.518;9.864;2023-07-02T04:28:12;11.80;;;7.53;;
20709;SDS011;10516;51.518;9.864;2023-07-02T04:30:38;8.32;;;6.70;;
20709;SDS011;10516;51.518;9.864;2023-07-02T04:33:03;10.10;;;7.40;;
20709;SDS011;10516;51.518;9.864;2023-07-02T04:35:30;6.72;;;6.13;;
20709;SDS011;10516;51.518;9.864;2023-07-02T04:37:56;9.60;;;7.30;;
20709;SDS011;10516;51.518;9.864;2023-07-02T04:40:22;8.90;;;6.03;;
20709;SDS011;10516;51.518;9.864;2023-07-02T04:42:47;8.48;;;6.10;;
20709;SDS011;10516;51.518;9.864;2023-07-02T04:45:14;10.93;;;5.95;;
20709;SDS011;10516;51.518;9.864;2023-07-02T04:47:44;7.38;;;5.75;;
20709;SDS011;10516;51.518;9.864;2023-07-02T04:50:10;7.85;;;5.80;;
20709;SDS011;10516;51.518;9.864;2023-07-02T04:52:39;11.38;;;5.72;;
20709;SDS011;10516;51.518;9.864;2023-07-02T04:55:05;8.65;;;5.32;;
20709;SDS011;10516;51.518;9.864;2023-07-02T04:57:31;6.95;;;5.53;;
20709;SDS011;10516;51.518;9.864;2023-07-02T04:59:56;6.53;;;5.72;;
20709;SDS011;10516;51.518;9.864;2023-07-02T05:02:22;9.48;;;5.75;;
20709;SDS011;10516;51.518;9.864;2023-07-02T05:04:48;8.75;;;6.22;;
20709;SDS011;10516;51.518;9.864;2023-07-02T05:07:13;9.30;;;5.90;;
20709;SDS011;10516;51.518;9.864;2023-07-02T05:09:38;6.93;;;6.32;;
20709;SDS011;10516;51.518;9.864;2023-07-02T05:12:04;6.68;;;6.03;;
20709;SDS011;10516;51.518;9.864;2023-07-02T05:14:30;5.97;;;5.40;;
20709;SDS011;10516;51.518;9.864;2023-07-02T05:16:55;6.65;;;5.85;;
20709;SDS011;10516;51.518;9.864;2023-07-02T05:19:20;10.35;;;7.13;;
20709;SDS011;10516;51.518;9.864;2023-07-02T05:21:46;6.75;;;6.03;;
20709;SDS011;10516;51.518;9.864;2023-07-02T05:24:11;7.97;;;6.60;;
20709;SDS011;10516;51.518;9.864;2023-07-02T05:26:37;7.65;;;6.30;;
20709;SDS011;10516;51.518;9.864;2023-07-02T05:29:02;9.23;;;6.90;;
20709;SDS011;10516;51.518;9.864;2023-07-02T05:31:27;6.63;;;6.05;;
20709;SDS011;10516;51.518;9.864;2023-07-02T05:33:53;10.52;;;6.80;;
20709;SDS011;10516;51.518;9.864;2023-07-02T05:36:19;8.50;;;6.20;;
20709;SDS011;10516;51.518;9.864;2023-07-02T05:38:45;8.85;;;7.13;;
20709;SDS011;10516;51.518;9.864;2023-07-02T05:41:11;10.40;;;7.38;;
20709;SDS011;10516;51.518;9.864;2023-07-02T05:43:43;13.98;;;6.78;;
20709;SDS011;10516;51.518;9.864;2023-07-02T05:46:08;7.90;;;7.13;;
20709;SDS011;10516;51.518;9.864;2023-07-02T05:48:34;7.35;;;6.75;;
20709;SDS011;10516;51.518;9.864;2023-07-02T05:50:59;12.23;;;7.15;;
20709;SDS011;10516;51.518;9.864;2023-07-02T05:53:24;10.35;;;6.68;;
20709;SDS011;10516;51.518;9.864;2023-07-02T05:55:50;7.22;;;6.03;;
20709;SDS011;10516;51.518;9.864;2023-07-02T05:58:15;6.70;;;6.03;;
20709;SDS011;10516;51.518;9.864;2023-07-02T06:00:40;9.07;;;6.78;;
20709;SDS011;10516;51.518;9.864;2023-07-02T06:03:07;9.13;;;6.28;;
20709;SDS011;10516;51.518;9.864;2023-07-02T06:05:32;7.60;;;6.97;;
20709;SDS011;10516;51.518;9.864;2023-07-02T06:07:57;10.05;;;7.03;;
20709;SDS011;10516;51.518;9.864;2023-07-02T06:10:23;12.45;;;7.28;;
20709;SDS011;10516;51.518;9.864;2023-07-02T06:12:48;9.18;;;7.75;;
20709;SDS011;10516;51.518;9.864;2023-07-02T06:15:14;9.52;;;7.55;;
20709;SDS011;10516;51.518;9.864;2023-07-02T06:17:39;7.57;;;6.75;;
20709;SDS011;10516;51.518;9.864;2023-07-02T06:20:05;7.68;;;6.88;;
20709;SDS011;10516;51.518;9.864;2023-07-02T06:22:31;11.23;;;8.05;;
20709;SDS011;10516;51.518;9.864;2023-07-02T06:24:56;8.40;;;7.55;;
20709;SDS011;10516;51.518;9.864;2023-07-02T06:27:22;11.40;;;8.18;;
20709;SDS011;10516;51.518;9.864;2023-07-02T06:29:47;9.38;;;8.15;;
20709;SDS011;10516;51.518;9.864;2023-07-02T06:32:13;10.52;;;8.63;;
20709;SDS011;10516;51.518;9.864;2023-07-02T06:34:38;14.85;;;9.48;;
20709;SDS011;10516;51.518;9.864;2023-07-02T06:37:04;13.38;;;8.50;;
20709;SDS011;10516;51.518;9.864;2023-07-02T06:39:29;12.50;;;9.57;;
20709;SDS011;10516;51.518;9.864;2023-07-02T06:41:55;15.63;;;9.45;;
20709;SDS011;10516;51.518;9.864;2023-07-02T06:44:20;13.68;;;10.18;;
20709;SDS011;10516;51.518;9.864;2023-07-02T06:46:46;13.57;;;8.82;;
20709;SDS011;10516;51.518;9.864;2023-07-02T06:49:11;12.95;;;9.43;;
20709;SDS011;10516;51.518;9.864;2023-07-02T06:51:37;21.38;;;10.82;;
20709;SDS011;10516;51.518;9.864;2023-07-02T06:54:02;12.55;;;10.52;;
20709;SDS011;10516;51.518;9.864;2023-07-02T06:56:27;14.05;;;9.63;;
20709;SDS011;10516;51.518;9.864;2023-07-02T06:58:53;12.95;;;9.57;;
20709;SDS011;10516;51.518;9.864;2023-07-02T07:01:20;15.73;;;11.23;;
20709;SDS011;10516;51.518;9.864;2023-07-02T07:03:45;16.92;;;10.65;;
20709;SDS011;10516;51.518;9.864;2023-07-02T07:06:11;19.00;;;11.40;;
20709;SDS011;10516;51.518;9.864;2023-07-02T07:08:37;18.58;;;12.80;;
20709;SDS011;10516;51.518;9.864;2023-07-02T07:11:03;19.40;;;11.00;;
20709;SDS011;10516;51.518;9.864;2023-07-02T07:13:29;12.25;;;10.45;;
20709;SDS011;10516;51.518;9.864;2023-07-02T07:15:54;13.48;;;10.35;;
20709;SDS011;10516;51.518;9.864;2023-07-02T07:18:23;21.40;;;12.23;;
20709;SDS011;10516;51.518;9.864;2023-07-02T07:20:48;22.63;;;13.05;;
20709;SDS011;10516;51.518;9.864;2023-07-02T07:23:15;21.05;;;11.90;;
20709;SDS011;10516;51.518;9.864;2023-07-02T07:25:42;21.02;;;11.35;;
20709;SDS011;10516;51.518;9.864;2023-07-02T07:28:07;16.33;;;10.80;;
20709;SDS011;10516;51.518;9.864;2023-07-02T07:30:36;22.55;;;12.68;;
20709;SDS011;10516;51.518;9.864;2023-07-02T07:33:02;24.10;;;12.82;;
20709;SDS011;10516;51.518;9.864;2023-07-02T07:35:27;25.23;;;12.60;;
20709;SDS011;10516;51.518;9.864;2023-07-02T07:37:53;22.17;;;13.43;;
20709;SDS011;10516;51.518;9.864;2023-07-02T07:40:18;23.38;;;12.40;;
20709;SDS011;10516;51.518;9.864;2023-07-02T07:42:44;23.50;;;11.90;;
20709;SDS011;10516;51.518;9.864;2023-07-02T07:45:09;22.30;;;11.23;;
20709;SDS011;10516;51.518;9.864;2023-07-02T07:47:36;22.08;;;12.02;;
20709;SDS011;10516;51.518;9.864;2023-07-02T07:50:01;27.45;;;13.63;;
20709;SDS011;10516;51.518;9.864;2023-07-02T07:52:27;22.45;;;12.60;;
20709;SDS011;10516;51.518;9.864;2023-07-02T07:54:52;25.65;;;13.52;;
20709;SDS011;10516;51.518;9.864;2023-07-02T07:57:18;19.65;;;11.95;;
20709;SDS011;10516;51.518;9.864;2023-07-02T07:59:43;23.13;;;13.68;;
20709;SDS011;10516;51.518;9.864;2023-07-02T08:02:09;21.75;;;13.75;;
20709;SDS011;10516;51.518;9.864;2023-07-02T08:04:34;23.58;;;12.38;;
20709;SDS011;10516;51.518;9.864;2023-07-02T08:07:01;24.20;;;12.65;;
20709;SDS011;10516;51.518;9.864;2023-07-02T08:09:29;26.25;;;12.23;;
20709;SDS011;10516;51.518;9.864;2023-07-02T08:11:55;23.45;;;11.93;;
20709;SDS011;10516;51.518;9.864;2023-07-02T08:14:20;19.95;;;11.77;;
20709;SDS011;10516;51.518;9.864;2023-07-02T08:16:46;28.10;;;12.10;;
20709;SDS011;10516;51.518;9.864;2023-07-02T08:19:13;24.25;;;11.02;;
20709;SDS011;10516;51.518;9.864;2023-07-02T08:21:39;25.23;;;12.40;;
20709;SDS011;10516;51.518;9.864;2023-07-02T08:24:05;24.80;;;11.63;;
20709;SDS011;10516;51.518;9.864;2023-07-02T08:26:31;22.75;;;12.35;;
20709;SDS011;10516;51.518;9.864;2023-07-02T08:28:56;25.00;;;12.18;;
20709;SDS011;10516;51.518;9.864;2023-07-02T08:31:22;23.42;;;11.55;;
20709;SDS011;10516;51.518;9.864;2023-07-02T08:33:47;25.50;;;12.68;;
20709;SDS011;10516;51.518;9.864;2023-07-02T08:36:13;29.08;;;12.18;;
20709;SDS011;10516;51.518;9.864;2023-07-02T08:38:41;25.83;;;13.00;;
20709;SDS011;10516;51.518;9.864;2023-07-02T08:41:08;22.20;;;11.30;;
20709;SDS011;10516;51.518;9.864;2023-07-02T08:43:33;26.75;;;12.68;;
20709;SDS011;10516;51.518;9.864;2023-07-02T08:46:01;22.65;;;11.48;;
20709;SDS011;10516;51.518;9.864;2023-07-02T08:48:26;26.25;;;11.88;;
20709;SDS011;10516;51.518;9.864;2023-07-02T08:50:54;29.27;;;12.70;;
20709;SDS011;10516;51.518;9.864;2023-07-02T08:53:20;24.92;;;12.15;;
20709;SDS011;10516;51.518;9.864;2023-07-02T08:55:50;23.48;;;11.70;;
20709;SDS011;10516;51.518;9.864;2023-07-02T08:58:15;28.77;;;12.68;;
20709;SDS011;10516;51.518;9.864;2023-07-02T09:01:03;22.95;;;11.23;;
20709;SDS011;10516;51.518;9.864;2023-07-02T09:03:29;24.88;;;12.23;;
20709;SDS011;10516;51.518;9.864;2023-07-02T09:05:55;23.63;;;12.60;;
20709;SDS011;10516;51.518;9.864;2023-07-02T09:08:26;24.67;;;12.90;;
20709;SDS011;10516;51.518;9.864;2023-07-02T09:10:53;28.80;;;12.93;;
20709;SDS011;10516;51.518;9.864;2023-07-02T09:13:19;26.20;;;13.18;;
20709;SDS011;10516;51.518;9.864;2023-07-02T09:15:45;24.65;;;12.68;;
20709;SDS011;10516;51.518;9.864;2023-07-02T09:18:17;20.73;;;11.77;;
20709;SDS011;10516;51.518;9.864;2023-07-02T09:20:46;21.15;;;11.50;;
20709;SDS011;10516;51.518;9.864;2023-07-02T09:23:16;28.23;;;13.27;;
20709;SDS011;10516;51.518;9.864;2023-07-02T09:25:41;24.58;;;12.20;;
20709;SDS011;10516;51.518;9.864;2023-07-02T09:28:14;24.25;;;12.38;;
20709;SDS011;10516;51.518;9.864;2023-07-02T09:30:51;19.27;;;12.73;;
20709;SDS011;10516;51.518;9.864;2023-07-02T09:33:27;20.33;;;12.05;;
20709;SDS011;10516;51.518;9.864;2023-07-02T09:35:53;24.67;;;13.45;;
20709;SDS011;10516;51.518;9.864;2023-07-02T09:38:20;18.92;;;13.43;;
20709;SDS011;10516;51.518;9.864;2023-07-02T09:40:47;21.50;;;12.48;;
20709;SDS011;10516;51.518;9.864;2023-07-02T09:43:18;20.23;;;12.52;;
20709;SDS011;10516;51.518;9.864;2023-07-02T09:45:45;25.70;;;13.88;;
20709;SDS011;10516;51.518;9.864;2023-07-02T09:48:15;24.58;;;14.05;;
20709;SDS011;10516;51.518;9.864;2023-07-02T09:50:42;25.77;;;14.05;;
20709;SDS011;10516;51.518;9.864;2023-07-02T09:53:09;24.75;;;14.18;;
20709;SDS011;10516;51.518;9.864;2023-07-02T09:55:35;24.40;;;14.65;;
20709;SDS011;10516;51.518;9.864;2023-07-02T09:58:04;22.63;;;13.57;;
20709;SDS011;10516;51.518;9.864;2023-07-02T10:00:30;24.67;;;13.95;;
20709;SDS011;10516;51.518;9.864;2023-07-02T10:02:56;25.73;;;15.35;;
20709;SDS011;10516;51.518;9.864;2023-07-02T10:05:28;23.08;;;13.23;;
20709;SDS011;10516;51.518;9.864;2023-07-02T10:07:55;23.77;;;15.20;;
20709;SDS011;10516;51.518;9.864;2023-07-02T10:10:36;23.55;;;13.93;;
20709;SDS011;10516;51.518;9.864;2023-07-02T10:13:01;28.33;;;14.85;;
20709;SDS011;10516;51.518;9.864;2023-07-02T10:15:28;27.73;;;14.98;;
20709;SDS011;10516;51.518;9.864;2023-07-02T10:17:57;22.48;;;14.18;;
20709;SDS011;10516;51.518;9.864;2023-07-02T10:22:58;27.33;;;14.75;;
20709;SDS011;10516;51.518;9.864;2023-07-02T10:25:30;23.63;;;12.48;;
20709;SDS011;10516;51.518;9.864;2023-07-02T10:27:58;24.48;;;13.25;;
20709;SDS011;10516;51.518;9.864;2023-07-02T10:33:10;27.52;;;14.88;;
20709;SDS011;10516;51.518;9.864;2023-07-02T10:35:38;27.70;;;15.00;;
20709;SDS011;10516;51.518;9.864;2023-07-02T10:38:05;19.48;;;13.02;;
20709;SDS011;10516;51.518;9.864;2023-07-02T10:40:31;24.48;;;13.93;;
20709;SDS011;10516;51.518;9.864;2023-07-02T10:42:58;27.70;;;15.02;;
20709;SDS011;10516;51.518;9.864;2023-07-02T10:45:31;23.80;;;14.23;;
20709;SDS011;10516;51.518;9.864;2023-07-02T10:47:57;29.00;;;14.60;;
20709;SDS011;10516;51.518;9.864;2023-07-02T10:50:23;29.92;;;14.90;;
20709;SDS011;10516;51.518;9.864;2023-07-02T10:52:49;29.77;;;13.27;;
20709;SDS011;10516;51.518;9.864;2023-07-02T10:55:21;27.27;;;14.18;;
20709;SDS011;10516;51.518;9.864;2023-07-02T10:57:48;23.77;;;14.73;;
20709;SDS011;10516;51.518;9.864;2023-07-02T11:00:16;26.17;;;13.85;;
20709;SDS011;10516;51.518;9.864;2023-07-02T11:02:42;26.73;;;14.30;;
20709;SDS011;10516;51.518;9.864;2023-07-02T11:05:08;25.88;;;14.88;;
20709;SDS011;10516;51.518;9.864;2023-07-02T11:07:41;25.02;;;14.18;;
20709;SDS011;10516;51.518;9.864;2023-07-02T11:10:07;30.27;;;15.27;;
20709;SDS011;10516;51.518;9.864;2023-07-02T11:12:34;26.55;;;14.40;;
20709;SDS011;10516;51.518;9.864;2023-07-02T11:15:09;28.25;;;14.80;;
20709;SDS011;10516;51.518;9.864;2023-07-02T11:17:36;25.45;;;15.65;;
20709;SDS011;10516;51.518;9.864;2023-07-02T11:20:01;29.38;;;14.85;;
20709;SDS011;10516;51.518;9.864;2023-07-02T11:22:33;23.92;;;13.45;;
20709;SDS011;10516;51.518;9.864;2023-07-02T11:27:39;24.30;;;14.80;;
20709;SDS011;10516;51.518;9.864;2023-07-02T11:30:05;27.38;;;15.27;;
20709;SDS011;10516;51.518;9.864;2023-07-02T11:32:31;30.25;;;13.98;;
20709;SDS011;10516;51.518;9.864;2023-07-02T11:35:00;24.55;;;13.95;;
20709;SDS011;10516;51.518;9.864;2023-07-02T11:37:26;27.35;;;13.88;;
20709;SDS011;10516;51.518;9.864;2023-07-02T11:39:51;31.73;;;14.85;;
20709;SDS011;10516;51.518;9.864;2023-07-02T11:42:16;22.00;;;14.13;;
20709;SDS011;10516;51.518;9.864;2023-07-02T11:44:42;31.48;;;14.80;;
20709;SDS011;10516;51.518;9.864;2023-07-02T11:47:07;24.92;;;13.95;;
20709;SDS011;10516;51.518;9.864;2023-07-02T11:49:33;26.85;;;14.68;;
20709;SDS011;10516;51.518;9.864;2023-07-02T11:51:59;25.05;;;15.13;;
20709;SDS011;10516;51.518;9.864;2023-07-02T11:54:24;24.73;;;14.30;;
20709;SDS011;10516;51.518;9.864;2023-07-02T11:56:50;23.65;;;14.35;;
20709;SDS011;10516;51.518;9.864;2023-07-02T11:59:15;28.05;;;15.25;;
20709;SDS011;10516;51.518;9.864;2023-07-02T12:01:40;24.95;;;14.13;;
20709;SDS011;10516;51.518;9.864;2023-07-02T12:04:06;31.40;;;15.73;;
20709;SDS011;10516;51.518;9.864;2023-07-02T12:06:32;23.75;;;14.52;;
20709;SDS011;10516;51.518;9.864;2023-07-02T12:08:58;23.38;;;13.85;;
20709;SDS011;10516;51.518;9.864;2023-07-02T12:11:24;21.17;;;13.98;;
20709;SDS011;10516;51.518;9.864;2023-07-02T12:13:50;27.85;;;14.38;;
20709;SDS011;10516;51.518;9.864;2023-07-02T12:16:15;28.67;;;14.10;;
20709;SDS011;10516;51.518;9.864;2023-07-02T12:18:41;22.38;;;13.60;;
20709;SDS011;10516;51.518;9.864;2023-07-02T12:21:06;24.58;;;14.13;;
20709;SDS011;10516;51.518;9.864;2023-07-02T12:23:31;26.63;;;13.75;;
20709;SDS011;10516;51.518;9.864;2023-07-02T12:25:57;29.80;;;14.45;;
20709;SDS011;10516;51.518;9.864;2023-07-02T12:28:22;26.10;;;14.68;;
20709;SDS011;10516;51.518;9.864;2023-07-02T12:30:48;23.27;;;13.73;;
20709;SDS011;10516;51.518;9.864;2023-07-02T12:33:14;26.83;;;14.75;;
20709;SDS011;10516;51.518;9.864;2023-07-02T12:35:39;24.58;;;13.68;;
20709;SDS011;10516;51.518;9.864;2023-07-02T12:38:06;25.08;;;14.50;;
20709;SDS011;10516;51.518;9.864;2023-07-02T12:40:33;21.63;;;14.23;;
20709;SDS011;10516;51.518;9.864;2023-07-02T12:42:58;22.15;;;13.45;;
20709;SDS011;10516;51.518;9.864;2023-07-02T12:45:24;28.58;;;13.75;;
20709;SDS011;10516;51.518;9.864;2023-07-02T12:47:49;24.33;;;13.38;;
20709;SDS011;10516;51.518;9.864;2023-07-02T12:50:15;26.75;;;14.35;;
20709;SDS011;10516;51.518;9.864;2023-07-02T12:52:40;22.08;;;13.50;;
20709;SDS011;10516;51.518;9.864;2023-07-02T12:55:09;30.25;;;13.80;;
20709;SDS011;10516;51.518;9.864;2023-07-02T12:57:34;23.75;;;14.23;;
20709;SDS011;10516;51.518;9.864;2023-07-02T13:00:00;28.55;;;14.15;;
20709;SDS011;10516;51.518;9.864;2023-07-02T13:02:25;25.73;;;14.20;;
20709;SDS011;10516;51.518;9.864;2023-07-02T13:04:51;26.92;;;14.02;;
20709;SDS011;10516;51.518;9.864;2023-07-02T13:07:16;24.70;;;14.70;;
20709;SDS011;10516;51.518;9.864;2023-07-02T13:09:42;27.67;;;15.52;;
20709;SDS011;10516;51.518;9.864;2023-07-02T13:12:09;27.15;;;13.02;;
20709;SDS011;10516;51.518;9.864;2023-07-02T13:14:36;24.70;;;14.05;;
20709;SDS011;10516;51.518;9.864;2023-07-02T13:17:01;27.77;;;13.25;;
20709;SDS011;10516;51.518;9.864;2023-07-02T13:19:30;24.55;;;13.93;;
20709;SDS011;10516;51.518;9.864;2023-07-02T13:21:56;28.33;;;13.02;;
20709;SDS011;10516;51.518;9.864;2023-07-02T13:24:21;26.27;;;13.20;;
20709;SDS011;10516;51.518;9.864;2023-07-02T13:27:01;29.05;;;14.98;;
20709;SDS011;10516;51.518;9.864;2023-07-02T13:29:32;23.58;;;14.15;;
20709;SDS011;10516;51.518;9.864;2023-07-02T13:32:00;28.85;;;15.13;;
20709;SDS011;10516;51.518;9.864;2023-07-02T13:34:25;18.83;;;12.65;;
20709;SDS011;10516;51.518;9.864;2023-07-02T13:36:51;22.58;;;13.68;;
20709;SDS011;10516;51.518;9.864;2023-07-02T13:39:17;22.65;;;13.05;;
20709;SDS011;10516;51.518;9.864;2023-07-02T13:41:45;27.58;;;13.98;;
20709;SDS011;10516;51.518;9.864;2023-07-02T13:44:10;25.45;;;13.75;;
20709;SDS011;10516;51.518;9.864;2023-07-02T13:46:36;27.48;;;13.35;;
20709;SDS011;10516;51.518;9.864;2023-07-02T13:49:01;22.90;;;12.77;;
20709;SDS011;10516;51.518;9.864;2023-07-02T13:51:27;25.45;;;13.77;;
20709;SDS011;10516;51.518;9.864;2023-07-02T13:53:52;24.83;;;14.40;;
20709;SDS011;10516;51.518;9.864;2023-07-02T13:56:17;23.83;;;14.25;;
20709;SDS011;10516;51.518;9.864;2023-07-02T13:58:47;28.98;;;13.13;;
20709;SDS011;10516;51.518;9.864;2023-07-02T14:01:32;34.08;;;14.30;;
20709;SDS011;10516;51.518;9.864;2023-07-02T14:03:58;24.00;;;14.05;;
20709;SDS011;10516;51.518;9.864;2023-07-02T14:06:25;24.77;;;14.63;;
20709;SDS011;10516;51.518;9.864;2023-07-02T14:08:50;26.05;;;13.75;;
20709;SDS011;10516;51.518;9.864;2023-07-02T14:11:16;25.45;;;13.98;;
20709;SDS011;10516;51.518;9.864;2023-07-02T14:13:42;28.83;;;14.07;;
20709;SDS011;10516;51.518;9.864;2023-07-02T14:16:07;29.45;;;14.75;;
20709;SDS011;10516;51.518;9.864;2023-07-02T14:18:33;21.55;;;14.02;;
20709;SDS011;10516;51.518;9.864;2023-07-02T14:20:58;31.42;;;15.55;;
20709;SDS011;10516;51.518;9.864;2023-07-02T14:23:24;24.67;;;14.88;;
20709;SDS011;10516;51.518;9.864;2023-07-02T14:25:49;31.20;;;13.77;;
20709;SDS011;10516;51.518;9.864;2023-07-02T14:28:14;26.30;;;13.75;;
20709;SDS011;10516;51.518;9.864;2023-07-02T14:30:40;23.38;;;14.40;;
20709;SDS011;10516;51.518;9.864;2023-07-02T14:33:07;29.55;;;14.43;;